This is the latest recevied weather packets stored in our database for station/object WA4IKQ. If no packets are shown the sender has not sent any weather packets the latest 10 day(s).
| Time | Temp. | Humidity | Pressure | Rain* | Wind** | Luminosity | Snow |
|---|---|---|---|---|---|---|---|
| 1777409953 | 28.89° C | 56% | 1018.2 hPa | 0 mm | 3.58 m/s, 1° | - | - |
| 1777409823 | 28.89° C | 56% | 1018.2 hPa | 0 mm | 3.58 m/s, 1° | - | - |
| 1777409610 | 28.89° C | 54% | 1018.2 hPa | 0 mm | 3.13 m/s, 60° | - | - |
| 1777409522 | 28.89° C | 54% | 1018.2 hPa | 0 mm | 3.13 m/s, 60° | - | - |
| 1777409385 | 29.44° C | 53% | 1018.3 hPa | 0 mm | 4.47 m/s, 27° | - | - |
| 1777409221 | 29.44° C | 53% | 1018.3 hPa | 0 mm | 4.47 m/s, 27° | - | - |
| 1777408751 | 29.44° C | 54% | 1018.3 hPa | 0 mm | 3.13 m/s, 332° | - | - |
| 1777408621 | 29.44° C | 54% | 1018.3 hPa | 0 mm | 3.13 m/s, 332° | - | - |
| 1777408436 | 29.44° C | 54% | 1018.3 hPa | 0 mm | 3.58 m/s, 3° | - | - |
| 1777408321 | 29.44° C | 54% | 1018.3 hPa | 0 mm | 3.58 m/s, 3° | - | - |
| 1777408209 | 28.89° C | 55% | 1018.4 hPa | 0 mm | 3.13 m/s, 0° | - | - |
| 1777408151 | 28.89° C | 55% | 1018.4 hPa | 0 mm | 3.13 m/s, 0° | - | - |
| 1777408022 | 28.89° C | 55% | 1018.4 hPa | 0 mm | 3.13 m/s, 0° | - | - |
| 1777407794 | 28.89° C | 55% | 1018.4 hPa | 0 mm | 2.68 m/s, 359° | - | - |
| 1777407722 | 28.89° C | 55% | 1018.4 hPa | 0 mm | 2.68 m/s, 359° | - | - |
| 1777407555 | 28.89° C | 55% | 1018.5 hPa | 0 mm | 4.47 m/s, 38° | - | - |
| 1777406989 | 28.33° C | 57% | 1018.5 hPa | 0 mm | 2.24 m/s, 58° | - | - |
| 1777406820 | 28.33° C | 57% | 1018.5 hPa | 0 mm | 2.24 m/s, 58° | - | - |
| 1777406430 | 28.89° C | 55% | 1018.7 hPa | 0 mm | 3.58 m/s, 45° | - | - |
| 1777406220 | 28.89° C | 55% | 1018.7 hPa | 0 mm | 3.58 m/s, 45° | - | - |
| 1777406134 | 29.44° C | 54% | 1018.7 hPa | 0 mm | 3.13 m/s, 60° | - | - |
| 1777405923 | 29.44° C | 54% | 1018.7 hPa | 0 mm | 3.13 m/s, 60° | - | - |
| 1777405709 | 29.44° C | 53% | 1018.7 hPa | 0 mm | 3.13 m/s, 1° | - | - |
| 1777405621 | 29.44° C | 53% | 1018.7 hPa | 0 mm | 3.13 m/s, 1° | - | - |
| 1777405528 | 29.44° C | 53% | 1018.8 hPa | 0 mm | 2.68 m/s, 23° | - | - |
* Rain latest hour (hover to see other rain measurements)
** Current wind speed in m/s (hover to see current wind gust speed)